Terminal Aerodrome Forecast
Issued by NWS Pocatello, ID

Home | Current Version | Previous Version | Text Only | Print | Product List | Glossary On
Versions: 1 2 3 4 5 6 7 8 9 10 11 12 13 14 15 16 17 18 19
052
FTUS45 KPIH 112331
TAFPIH
TAF
KPIH 112331Z 1200/1224 03008KT P6SM SCT090 SCT140
     FM120400 VRB04KT P6SM SCT080 BKN100 BKN140
     FM121100 VRB05KT P6SM FEW080 BKN160=

USA.gov is the U.S. government's official web portal to all federal, state and local government web resources and services.